Time;durP1;ratioP1;P1;durP2;ratioP2;P2;SDS_P1;SDS_P2;PMS_P1;PMS_P2;Temp;Humidity;BMP_temperature;BMP_pressure;BME280_temperature;BME280_humidity;BME280_pressure;Samples;Min_cycle;Max_cycle;Signal;HPM_P1;HPM_P2
2021/12/02 00:02:09;;;;;;;6.60;1.38;;;;;;;;;;4916703;28;99109;-70
2021/12/02 00:04:39;;;;;;;9.93;1.50;;;;;;;;;;4916360;28;99465;-70
2021/12/02 00:07:06;;;;;;;6.72;1.35;;;;;;;;;;4919149;28;99188;-70
2021/12/02 00:09:33;;;;;;;4.95;1.20;;;;;;;;;;4916299;28;99688;-70
2021/12/02 00:12:00;;;;;;;5.13;0.98;;;;;;;;;;4916470;28;98371;-71
2021/12/02 00:14:28;;;;;;;8.88;1.10;;;;;;;;;;4916612;28;99387;-71
2021/12/02 00:22:11;;;;;;;3.63;1.10;;;;;;;;;;4916431;28;99341;-70
2021/12/02 00:24:40;;;;;;;9.45;1.13;;;;;;;;;;4916540;28;99035;-70
2021/12/02 00:27:09;;;;;;;9.35;1.10;;;;;;;;;;4916430;28;98319;-70
2021/12/02 00:29:36;;;;;;;3.60;0.98;;;;;;;;;;4901925;28;102690;-70
2021/12/02 00:32:04;;;;;;;4.78;1.30;;;;;;;;;;4915505;28;99228;-70
2021/12/02 00:34:31;;;;;;;4.15;1.05;;;;;;;;;;4916351;28;99969;-71
2021/12/02 00:36:57;;;;;;;3.17;0.95;;;;;;;;;;4915711;28;99669;-70
2021/12/02 00:39:24;;;;;;;5.57;0.90;;;;;;;;;;4916102;28;98291;-70
2021/12/02 00:41:50;;;;;;;5.80;1.25;;;;;;;;;;4916389;28;99288;-70
2021/12/02 00:44:18;;;;;;;3.47;0.68;;;;;;;;;;4915826;28;99325;-70
2021/12/02 00:46:45;;;;;;;6.28;1.00;;;;;;;;;;4915644;28;99372;-71
2021/12/02 00:49:13;;;;;;;6.55;0.85;;;;;;;;;;4916359;28;98940;-71
2021/12/02 00:51:41;;;;;;;5.85;1.00;;;;;;;;;;4918874;28;99657;-70
2021/12/02 00:54:09;;;;;;;2.17;0.68;;;;;;;;;;4916127;28;99967;-70
2021/12/02 00:56:35;;;;;;;7.25;1.20;;;;;;;;;;4915095;28;100460;-70
2021/12/02 00:59:03;;;;;;;3.20;0.95;;;;;;;;;;4915764;28;99449;-70
2021/12/02 01:01:34;;;;;;;3.85;1.00;;;;;;;;;;4898532;28;99368;-70
2021/12/02 01:04:01;;;;;;;;;;;;;;;;;;4915991;28;99636;-70
2021/12/02 01:06:27;;;;;;;6.72;0.93;;;;;;;;;;4915009;28;116715;-70
2021/12/02 01:08:54;;;;;;;4.65;0.55;;;;;;;;;;4915498;28;99460;-70
2021/12/02 01:11:20;;;;;;;6.97;0.77;;;;;;;;;;4915361;28;99505;-70
2021/12/02 01:13:47;;;;;;;3.60;0.60;;;;;;;;;;4918327;28;97782;-71
2021/12/02 01:16:14;;;;;;;2.42;0.75;;;;;;;;;;4915571;28;99660;-70
2021/12/02 01:18:40;;;;;;;5.40;0.57;;;;;;;;;;4915603;28;98433;-70
2021/12/02 01:21:07;;;;;;;5.88;0.70;;;;;;;;;;4915277;28;99471;-70
2021/12/02 01:23:33;;;;;;;6.07;0.68;;;;;;;;;;4915243;28;99338;-71
2021/12/02 01:26:02;;;;;;;4.72;0.57;;;;;;;;;;4915511;28;98486;-71
2021/12/02 01:28:29;;;;;;;11.02;0.88;;;;;;;;;;4898462;28;99942;-71
2021/12/02 01:30:56;;;;;;;5.20;0.65;;;;;;;;;;4915142;28;100049;-71
2021/12/02 01:33:23;;;;;;;7.10;1.00;;;;;;;;;;4918608;28;99855;-71
2021/12/02 01:35:50;;;;;;;3.45;1.00;;;;;;;;;;4915068;28;99796;-70
2021/12/02 01:38:16;;;;;;;1.50;0.63;;;;;;;;;;4915608;28;97794;-69
2021/12/02 01:40:44;;;;;;;4.97;0.90;;;;;;;;;;4915248;28;98451;-71
2021/12/02 01:43:15;;;;;;;4.18;0.60;;;;;;;;;;4914907;28;99744;-71
2021/12/02 01:45:42;;;;;;;3.70;0.63;;;;;;;;;;4914915;28;99114;-71
2021/12/02 01:48:10;;;;;;;3.35;0.75;;;;;;;;;;4915366;28;100058;-71
2021/12/02 01:50:38;;;;;;;7.95;1.23;;;;;;;;;;4914825;28;99726;-70
2021/12/02 01:53:05;;;;;;;1.75;0.60;;;;;;;;;;4915157;28;98957;-71
2021/12/02 01:55:34;;;;;;;6.85;1.58;;;;;;;;;;4917493;28;99374;-71
2021/12/02 01:58:02;;;;;;;3.63;0.70;;;;;;;;;;4915005;28;98838;-71
2021/12/02 02:00:33;;;;;;;5.40;0.43;;;;;;;;;;4915029;28;99513;-72
2021/12/02 02:03:01;;;;;;;3.43;0.90;;;;;;;;;;4915153;28;98958;-71
2021/12/02 02:05:28;;;;;;;1.52;0.80;;;;;;;;;;4914918;28;98370;-72
2021/12/02 02:08:02;;;;;;;4.63;0.50;;;;;;;;;;4914567;28;99477;-72
2021/12/02 02:10:29;;;;;;;0.98;0.35;;;;;;;;;;4913974;28;100451;-71
2021/12/02 02:13:04;;;;;;;6.20;1.00;;;;;;;;;;4914483;28;98514;-71
2021/12/02 02:15:30;;;;;;;5.22;1.13;;;;;;;;;;4914834;28;98957;-70
2021/12/02 02:18:03;;;;;;;4.00;1.50;;;;;;;;;;4912932;28;99495;-71
2021/12/02 02:20:48;;;;;;;2.90;0.70;;;;;;;;;;4894503;28;99881;-71
2021/12/02 02:23:15;;;;;;;7.05;1.05;;;;;;;;;;4895282;28;99575;-71
2021/12/02 02:25:44;;;;;;;9.50;0.95;;;;;;;;;;4895522;28;98428;-71
2021/12/02 02:28:10;;;;;;;4.25;0.60;;;;;;;;;;4896022;28;99828;-71
2021/12/02 02:30:37;;;;;;;2.95;0.52;;;;;;;;;;4895129;28;99654;-71
2021/12/02 02:33:04;;;;;;;1.67;0.63;;;;;;;;;;4895067;28;98479;-71
2021/12/02 02:35:30;;;;;;;1.70;0.70;;;;;;;;;;4894860;28;100161;-71
2021/12/02 02:37:57;;;;;;;3.33;0.90;;;;;;;;;;4895031;28;99491;-71
2021/12/02 02:40:24;;;;;;;5.15;0.77;;;;;;;;;;4898544;28;98436;-71
2021/12/02 02:42:56;;;;;;;3.75;0.50;;;;;;;;;;4894834;28;99649;-71
2021/12/02 02:45:23;;;;;;;3.83;0.70;;;;;;;;;;4895099;28;98457;-71
2021/12/02 02:47:50;;;;;;;5.47;0.82;;;;;;;;;;4895212;28;98978;-71
2021/12/02 02:50:17;;;;;;;3.75;0.45;;;;;;;;;;4894923;28;98491;-71
2021/12/02 02:52:44;;;;;;;6.45;0.77;;;;;;;;;;4895655;28;97656;-71
2021/12/02 02:55:15;;;;;;;5.80;0.85;;;;;;;;;;4895276;28;98551;-70
2021/12/02 02:57:50;;;;;;;2.87;0.80;;;;;;;;;;4894847;28;99618;-71
2021/12/02 03:00:22;;;;;;;3.67;0.80;;;;;;;;;;4894454;28;99158;-71
2021/12/02 03:02:57;;;;;;;;;;;;;;;;;;4898225;28;100676;-71
2021/12/02 03:05:36;;;;;;;2.65;0.95;;;;;;;;;;4894343;28;115462;-71
2021/12/02 03:08:16;;;;;;;1.63;0.55;;;;;;;;;;4895126;28;98947;-71
2021/12/02 03:10:47;;;;;;;10.40;1.00;;;;;;;;;;4893970;28;99567;-71
2021/12/02 03:18:30;;;;;;;4.55;0.70;;;;;;;;;;4895068;28;98308;-71
2021/12/02 03:20:56;;;;;;;2.95;0.77;;;;;;;;;;4894868;28;98469;-71
2021/12/02 03:23:23;;;;;;;3.90;0.77;;;;;;;;;;4897945;28;99446;-71
2021/12/02 03:25:50;;;;;;;2.45;0.70;;;;;;;;;;4894419;28;99236;-71
2021/12/02 03:28:16;;;;;;;3.42;0.60;;;;;;;;;;4895043;28;100365;-70
2021/12/02 03:30:43;;;;;;;1.65;0.45;;;;;;;;;;4895083;28;99696;-70
2021/12/02 03:33:09;;;;;;;3.80;0.73;;;;;;;;;;4898062;28;98319;-71
2021/12/02 03:35:36;;;;;;;2.22;0.68;;;;;;;;;;4897221;28;99505;-70
2021/12/02 03:38:21;;;;;;;2.15;0.60;;;;;;;;;;4897719;28;99139;-72
2021/12/02 03:40:47;;;;;;;4.28;0.98;;;;;;;;;;4898019;28;98362;-72
2021/12/02 03:43:13;;;;;;;5.78;1.15;;;;;;;;;;4898475;28;98749;-72
2021/12/02 03:45:48;;;;;;;7.57;0.90;;;;;;;;;;4900726;28;99572;-71
2021/12/02 03:48:14;;;;;;;3.78;0.73;;;;;;;;;;4897298;28;99633;-71
2021/12/02 03:50:40;;;;;;;2.25;0.60;;;;;;;;;;4896653;28;100735;-71
2021/12/02 03:53:07;;;;;;;3.30;0.60;;;;;;;;;;4897940;28;98338;-71
2021/12/02 03:55:33;;;;;;;4.70;0.80;;;;;;;;;;4897814;28;99623;-71
2021/12/02 03:57:59;;;;;;;2.88;0.65;;;;;;;;;;4897254;28;99641;-71
2021/12/02 04:00:26;;;;;;;5.45;1.00;;;;;;;;;;4897605;28;98218;-71
2021/12/02 04:02:52;;;;;;;4.13;0.70;;;;;;;;;;4897076;28;99678;-71
2021/12/02 04:05:19;;;;;;;7.55;0.93;;;;;;;;;;4897143;28;99775;-71
2021/12/02 04:07:45;;;;;;;2.35;0.70;;;;;;;;;;4901362;28;97506;-71
2021/12/02 04:10:12;;;;;;;4.38;0.90;;;;;;;;;;4897254;28;99474;-71
2021/12/02 04:13:01;;;;;;;2.22;0.70;;;;;;;;;;4897033;28;98326;-71
2021/12/02 04:15:38;;;;;;;5.13;0.90;;;;;;;;;;4896728;28;99747;-72
2021/12/02 04:18:05;;;;;;;6.57;1.00;;;;;;;;;;4897005;28;99644;-72
2021/12/02 04:20:31;;;;;;;4.15;0.60;;;;;;;;;;4880390;28;98422;-72
2021/12/02 04:22:58;;;;;;;6.03;0.93;;;;;;;;;;4897329;28;99553;-72
2021/12/02 04:25:25;;;;;;;4.45;0.75;;;;;;;;;;4896817;28;99847;-72
2021/12/02 04:27:52;;;;;;;1.60;0.57;;;;;;;;;;4896790;28;98371;-71
2021/12/02 04:30:20;;;;;;;5.30;0.82;;;;;;;;;;4899960;28;99600;-71
2021/12/02 04:32:46;;;;;;;3.33;0.52;;;;;;;;;;4897842;28;97483;-71
2021/12/02 04:35:13;;;;;;;1.10;0.50;;;;;;;;;;4897194;28;98703;-71
2021/12/02 04:37:40;;;;;;;3.97;0.82;;;;;;;;;;4896542;28;99731;-71
2021/12/02 04:40:06;;;;;;;4.93;0.60;;;;;;;;;;4896558;28;99199;-71
2021/12/02 04:42:33;;;;;;;3.92;0.80;;;;;;;;;;4894730;28;100311;-71
2021/12/02 04:44:59;;;;;;;1.92;0.40;;;;;;;;;;4896244;28;99656;-71
2021/12/02 04:47:26;;;;;;;5.10;0.50;;;;;;;;;;4895979;28;98477;-73
2021/12/02 04:49:52;;;;;;;2.83;0.73;;;;;;;;;;4896596;28;99549;-72
2021/12/02 04:52:19;;;;;;;6.75;1.00;;;;;;;;;;4899796;28;99668;-72
2021/12/02 04:54:45;;;;;;;4.03;0.40;;;;;;;;;;4896833;28;99152;-72
2021/12/02 04:57:12;;;;;;;2.58;0.40;;;;;;;;;;4879578;28;98858;-71
2021/12/02 04:59:38;;;;;;;2.78;0.40;;;;;;;;;;4895971;28;98454;-70
2021/12/02 05:02:04;;;;;;;2.72;0.63;;;;;;;;;;4896711;28;98458;-71
2021/12/02 05:04:31;;;;;;;2.13;0.82;;;;;;;;;;4896026;28;100341;-71
2021/12/02 05:06:57;;;;;;;3.35;0.47;;;;;;;;;;4895216;28;99746;-71
2021/12/02 05:09:24;;;;;;;4.03;0.75;;;;;;;;;;4895439;28;99345;-71
2021/12/02 05:11:50;;;;;;;2.17;0.30;;;;;;;;;;4895004;28;99707;-71
2021/12/02 05:14:17;;;;;;;3.45;0.40;;;;;;;;;;4899180;28;98370;-71
2021/12/02 05:16:43;;;;;;;3.33;0.68;;;;;;;;;;4893574;28;99262;-70
2021/12/02 05:19:10;;;;;;;3.15;0.65;;;;;;;;;;4896420;28;98338;-70
2021/12/02 05:21:36;;;;;;;3.50;0.90;;;;;;;;;;4896914;28;99489;-70
2021/12/02 05:24:03;;;;;;;2.03;0.63;;;;;;;;;;4896142;28;100084;-71
2021/12/02 05:26:29;;;;;;;5.10;0.85;;;;;;;;;;4895923;28;98387;-71
2021/12/02 05:28:55;;;;;;;2.10;0.40;;;;;;;;;;4895881;28;99551;-71
2021/12/02 05:31:22;;;;;;;0.95;0.52;;;;;;;;;;4895865;28;99695;-71
2021/12/02 05:33:49;;;;;;;2.53;0.43;;;;;;;;;;4899489;28;98403;-71
2021/12/02 05:36:15;;;;;;;5.47;0.90;;;;;;;;;;4895865;28;99006;-71
2021/12/02 05:38:42;;;;;;;3.08;0.60;;;;;;;;;;4895948;28;98410;-72
2021/12/02 05:41:08;;;;;;;6.30;0.50;;;;;;;;;;4896082;28;99946;-72
2021/12/02 05:43:34;;;;;;;4.53;0.63;;;;;;;;;;4895769;28;99586;-71
2021/12/02 05:46:01;;;;;;;3.17;0.63;;;;;;;;;;4896742;28;97730;-70
2021/12/02 05:48:27;;;;;;;2.28;0.70;;;;;;;;;;4896014;28;98648;-71
2021/12/02 05:50:54;;;;;;;5.88;0.90;;;;;;;;;;4895595;28;99692;-71
2021/12/02 05:53:20;;;;;;;1.30;0.50;;;;;;;;;;4895092;28;99132;-71
2021/12/02 05:55:47;;;;;;;6.88;0.70;;;;;;;;;;4897699;28;100109;-70
2021/12/02 05:58:14;;;;;;;1.17;0.55;;;;;;;;;;4895884;28;98337;-71
2021/12/02 06:00:42;;;;;;;3.63;0.80;;;;;;;;;;4895959;28;99360;-71
2021/12/02 06:03:09;;;;;;;5.55;0.77;;;;;;;;;;4895463;28;99594;-71
2021/12/02 06:05:35;;;;;;;0.98;0.40;;;;;;;;;;4895882;28;98901;-71
2021/12/02 06:08:03;;;;;;;3.95;0.93;;;;;;;;;;4895469;28;99381;-71
2021/12/02 06:10:30;;;;;;;3.95;0.57;;;;;;;;;;4895752;28;99310;-71
2021/12/02 06:12:57;;;;;;;3.38;0.70;;;;;;;;;;4895444;28;98490;-71
2021/12/02 06:15:23;;;;;;;4.60;0.85;;;;;;;;;;4895811;28;99425;-71
2021/12/02 06:17:50;;;;;;;1.20;0.45;;;;;;;;;;4898064;28;100745;-71
2021/12/02 06:20:19;;;;;;;2.92;0.60;;;;;;;;;;4895495;28;100173;-71
2021/12/02 06:22:46;;;;;;;1.88;0.50;;;;;;;;;;4894747;28;99778;-71
2021/12/02 06:27:40;;;;;;;1.17;0.73;;;;;;;;;;4895584;28;98809;-72
2021/12/02 06:30:08;;;;;;;4.13;0.52;;;;;;;;;;4895394;28;98574;-71
2021/12/02 06:32:35;;;;;;;8.35;1.00;;;;;;;;;;4895504;28;98413;-71
2021/12/02 06:35:01;;;;;;;5.68;1.05;;;;;;;;;;4895651;28;98787;-74
2021/12/02 06:37:27;;;;;;;3.50;0.82;;;;;;;;;;4894910;28;99546;-73
2021/12/02 06:39:54;;;;;;;7.05;0.98;;;;;;;;;;4898616;28;98255;-72
2021/12/02 06:42:20;;;;;;;5.30;0.75;;;;;;;;;;4894550;28;100474;-73
2021/12/02 06:44:47;;;;;;;2.88;0.80;;;;;;;;;;4895323;28;98327;-73
2021/12/02 06:47:14;;;;;;;9.70;1.00;;;;;;;;;;4895268;28;99821;-72
2021/12/02 06:49:41;;;;;;;2.58;0.85;;;;;;;;;;4894257;28;99758;-73
2021/12/02 06:52:12;;;;;;;4.63;1.20;;;;;;;;;;4895185;28;98424;-73
2021/12/02 06:54:39;;;;;;;3.55;0.90;;;;;;;;;;4895446;28;99503;-72
2021/12/02 06:57:05;;;;;;;4.60;1.00;;;;;;;;;;4894879;28;99714;-73
2021/12/02 06:59:32;;;;;;;4.28;1.30;;;;;;;;;;4878660;28;97796;-72
2021/12/02 07:01:59;;;;;;;12.60;1.23;;;;;;;;;;4897941;28;98689;-72
2021/12/02 07:04:25;;;;;;;2.35;1.20;;;;;;;;;;4894534;28;98561;-72
2021/12/02 07:06:51;;;;;;;7.05;1.10;;;;;;;;;;4897119;28;99401;-72
2021/12/02 07:09:18;;;;;;;7.53;1.33;;;;;;;;;;4897966;28;99761;-72
2021/12/02 07:11:44;;;;;;;5.15;1.00;;;;;;;;;;4898057;28;98390;-72
2021/12/02 07:14:16;;;;;;;1.55;1.05;;;;;;;;;;4898248;28;99424;-72
2021/12/02 07:16:42;;;;;;;3.35;1.38;;;;;;;;;;4898081;28;99020;-71
2021/12/02 07:19:13;;;;;;;3.70;1.50;;;;;;;;;;4898008;28;98453;-72
2021/12/02 07:21:40;;;;;;;2.45;1.67;;;;;;;;;;4898315;28;99363;-72
2021/12/02 07:24:07;;;;;;;3.53;1.42;;;;;;;;;;4901702;28;98839;-71
2021/12/02 07:26:35;;;;;;;5.20;1.70;;;;;;;;;;4899173;28;98822;-76
2021/12/02 07:29:02;;;;;;;4.90;1.50;;;;;;;;;;4898806;28;99572;-73
2021/12/02 07:31:29;;;;;;;2.75;1.60;;;;;;;;;;4898220;28;99150;-76
2021/12/02 07:33:57;;;;;;;2.97;1.48;;;;;;;;;;4898425;28;100100;-76
2021/12/02 07:36:24;;;;;;;2.75;1.52;;;;;;;;;;4897634;28;99633;-78
2021/12/02 07:38:50;;;;;;;1.85;1.25;;;;;;;;;;4897974;28;98321;-76
2021/12/02 07:41:17;;;;;;;2.15;1.13;;;;;;;;;;4898316;28;99902;-75
2021/12/02 07:43:43;;;;;;;2.47;1.00;;;;;;;;;;4900788;28;99664;-77
2021/12/02 07:46:10;;;;;;;3.75;1.05;;;;;;;;;;4897693;28;98862;-76
2021/12/02 07:48:37;;;;;;;3.47;1.10;;;;;;;;;;4897916;28;98698;-73
2021/12/02 07:51:11;;;;;;;5.60;1.10;;;;;;;;;;4897776;28;98401;-71
2021/12/02 07:53:41;;;;;;;2.10;0.70;;;;;;;;;;4881001;28;99345;-71
2021/12/02 07:56:09;;;;;;;3.97;0.93;;;;;;;;;;4896760;28;100236;-72
2021/12/02 07:58:38;;;;;;;5.43;0.90;;;;;;;;;;4897414;28;98497;-75
2021/12/02 08:01:06;;;;;;;1.23;0.52;;;;;;;;;;4897515;28;99259;-74
2021/12/02 08:03:33;;;;;;;2.28;1.00;;;;;;;;;;4897381;28;99660;-74
2021/12/02 08:06:00;;;;;;;2.95;1.45;;;;;;;;;;4883636;28;98568;-74
2021/12/02 08:08:26;;;;;;;3.60;1.63;;;;;;;;;;4880093;28;100833;-76
2021/12/02 08:10:52;;;;;;;3.40;1.30;;;;;;;;;;4897639;28;98436;-73
2021/12/02 08:13:25;;;;;;;3.38;1.05;;;;;;;;;;4896477;28;99469;-72
2021/12/02 08:15:51;;;;;;;2.30;1.10;;;;;;;;;;4897037;28;99902;-71
2021/12/02 08:18:17;;;;;;;2.20;1.27;;;;;;;;;;4896465;28;98369;-72
2021/12/02 08:20:44;;;;;;;2.05;1.20;;;;;;;;;;4896797;28;99455;-72
2021/12/02 08:23:10;;;;;;;1.00;1.00;;;;;;;;;;4897024;28;99668;-73
2021/12/02 08:25:37;;;;;;;1.55;1.30;;;;;;;;;;4897126;28;98425;-73
2021/12/02 08:28:03;;;;;;;6.68;1.05;;;;;;;;;;4900068;28;99221;-71
2021/12/02 08:30:32;;;;;;;1.88;1.08;;;;;;;;;;4897114;28;98464;-72
2021/12/02 08:32:58;;;;;;;1.90;1.77;;;;;;;;;;4897134;28;99075;-73
2021/12/02 08:35:26;;;;;;;3.65;1.20;;;;;;;;;;4896648;28;99054;-72
2021/12/02 08:37:56;;;;;;;8.35;4.10;;;;;;;;;;4897495;28;97627;-73
2021/12/02 08:40:30;;;;;;;3.67;1.48;;;;;;;;;;4896688;28;98553;-76
2021/12/02 08:42:57;;;;;;;1.20;1.00;;;;;;;;;;4896621;28;99805;-72
2021/12/02 08:45:23;;;;;;;1.90;1.30;;;;;;;;;;4896490;28;98999;-71
2021/12/02 08:47:49;;;;;;;4.15;1.80;;;;;;;;;;4896961;28;100005;-71
2021/12/02 08:50:17;;;;;;;1.73;1.20;;;;;;;;;;4899661;28;99827;-71
2021/12/02 08:52:44;;;;;;;4.43;0.90;;;;;;;;;;4896656;28;99309;-72
2021/12/02 08:55:11;;;;;;;1.20;0.75;;;;;;;;;;4896406;28;99810;-72
2021/12/02 08:57:44;;;;;;;1.33;1.23;;;;;;;;;;4896778;28;98413;-72
2021/12/02 09:00:12;;;;;;;1.65;0.90;;;;;;;;;;4896915;28;99669;-72
2021/12/02 09:02:39;;;;;;;4.22;1.02;;;;;;;;;;4896635;28;99601;-71
2021/12/02 09:05:06;;;;;;;2.90;1.02;;;;;;;;;;4896591;28;100261;-71
2021/12/02 09:07:32;;;;;;;6.70;1.25;;;;;;;;;;4896227;28;98904;-71
2021/12/02 09:09:58;;;;;;;3.47;1.10;;;;;;;;;;4895741;28;100062;-71
2021/12/02 09:12:25;;;;;;;3.70;1.00;;;;;;;;;;4899497;28;98318;-71
2021/12/02 09:14:51;;;;;;;5.13;1.95;;;;;;;;;;4896018;28;99008;-74
2021/12/02 09:17:18;;;;;;;5.70;1.45;;;;;;;;;;4896475;28;98542;-75
2021/12/02 09:19:45;;;;;;;4.53;1.38;;;;;;;;;;4896297;28;99908;-74
2021/12/02 09:22:11;;;;;;;4.05;1.23;;;;;;;;;;4895636;28;99632;-71
2021/12/02 09:24:39;;;;;;;2.85;1.05;;;;;;;;;;4896464;28;98456;-71
2021/12/02 09:27:06;;;;;;;4.45;1.13;;;;;;;;;;4880097;28;99495;-71
2021/12/02 09:29:32;;;;;;;12.38;1.20;;;;;;;;;;4895630;28;100048;-71
2021/12/02 09:31:58;;;;;;;1.55;0.70;;;;;;;;;;4896440;28;98565;-71
2021/12/02 09:34:28;;;;;;;4.68;1.00;;;;;;;;;;4898468;28;99267;-72
2021/12/02 09:36:55;;;;;;;4.25;1.23;;;;;;;;;;4896041;28;98672;-71
2021/12/02 09:39:29;;;;;;;4.28;0.60;;;;;;;;;;4895773;28;99761;-71
2021/12/02 09:41:56;;;;;;;6.47;1.00;;;;;;;;;;4895797;28;99847;-71
2021/12/02 09:44:22;;;;;;;3.20;0.98;;;;;;;;;;4896095;28;98259;-71
2021/12/02 09:46:49;;;;;;;5.22;1.08;;;;;;;;;;4896059;28;99427;-71
2021/12/02 09:49:16;;;;;;;5.50;1.15;;;;;;;;;;4895103;28;99680;-72
2021/12/02 09:51:58;;;;;;;6.50;0.90;;;;;;;;;;4896446;28;97690;-71
2021/12/02 09:54:29;;;;;;;1.98;0.65;;;;;;;;;;4898707;28;98752;-71
2021/12/02 09:56:59;;;;;;;2.75;0.68;;;;;;;;;;4895910;28;98360;-71
2021/12/02 09:59:29;;;;;;;4.03;0.60;;;;;;;;;;4895465;28;99446;-71
2021/12/02 10:02:03;;;;;;;2.70;0.60;;;;;;;;;;4894974;28;99460;-71
2021/12/02 10:04:31;;;;;;;1.38;0.57;;;;;;;;;;4895945;28;98602;-71
2021/12/02 10:07:36;;;;;;;2.58;0.80;;;;;;;;;;4895918;28;99464;-70
2021/12/02 10:10:27;;;;;;;4.55;0.82;;;;;;;;;;4895109;28;99246;-71
2021/12/02 10:13:26;;;;;;;5.57;0.85;;;;;;;;;;4895543;28;98265;-71
2021/12/02 10:16:01;;;;;;;3.63;0.93;;;;;;;;;;4895776;28;99386;-71
2021/12/02 10:18:42;;;;;;;2.80;0.90;;;;;;;;;;4881667;28;98923;-71
2021/12/02 10:21:19;;;;;;;3.05;0.93;;;;;;;;;;4878446;28;99728;-70
2021/12/02 10:23:47;;;;;;;2.97;1.08;;;;;;;;;;4895215;28;99655;-71
2021/12/02 10:26:18;;;;;;;2.35;0.80;;;;;;;;;;4895039;28;99063;-71
2021/12/02 10:28:47;;;;;;;1.15;0.75;;;;;;;;;;4895114;28;100161;-71
2021/12/02 10:31:24;;;;;;;0.70;0.63;;;;;;;;;;4895146;28;99683;-71
2021/12/02 10:33:57;;;;;;;3.05;0.90;;;;;;;;;;4895586;28;98305;-70
2021/12/02 10:36:26;;;;;;;1.95;0.80;;;;;;;;;;4895486;28;99743;-73
2021/12/02 10:38:53;;;;;;;1.45;1.00;;;;;;;;;;4895085;28;99635;-73
2021/12/02 10:41:24;;;;;;;1.23;0.60;;;;;;;;;;4899283;28;98365;-75
2021/12/02 10:44:08;;;;;;;2.55;0.70;;;;;;;;;;4898632;28;98916;-74
2021/12/02 10:46:42;;;;;;;1.83;0.70;;;;;;;;;;4898694;28;99118;-70
2021/12/02 10:49:15;;;;;;;0.90;0.70;;;;;;;;;;4898602;28;99485;-70
2021/12/02 10:51:46;;;;;;;3.03;0.90;;;;;;;;;;4897356;28;100578;-71
2021/12/02 10:54:14;;;;;;;0.57;0.57;;;;;;;;;;4898691;28;98344;-71
2021/12/02 10:56:46;;;;;;;0.80;0.50;;;;;;;;;;4898608;28;99696;-71
2021/12/02 10:59:23;;;;;;;2.55;0.88;;;;;;;;;;4898289;28;99187;-70
2021/12/02 11:01:50;;;;;;;2.05;0.65;;;;;;;;;;4898274;28;98444;-70
2021/12/02 11:04:17;;;;;;;0.60;0.60;;;;;;;;;;4900992;28;98807;-71
2021/12/02 11:06:44;;;;;;;0.75;0.60;;;;;;;;;;4898531;28;98527;-75
2021/12/02 11:09:30;;;;;;;0.70;0.50;;;;;;;;;;4898710;28;99538;-71
2021/12/02 11:12:16;;;;;;;0.50;0.50;;;;;;;;;;4897735;28;99989;-70
2021/12/02 11:14:51;;;;;;;1.85;0.38;;;;;;;;;;4880591;28;98519;-71
2021/12/02 11:17:17;;;;;;;0.30;0.30;;;;;;;;;;4897820;28;99093;-70
2021/12/02 11:19:48;;;;;;;0.40;0.40;;;;;;;;;;4897743;28;99706;-70
2021/12/02 11:22:18;;;;;;;;;;;;;;;;;;4898536;28;98492;-71
2021/12/02 11:24:45;;;;;;;0.20;0.20;;;;;;;;;;4897192;28;128387;-73
2021/12/02 11:27:14;;;;;;;0.68;0.60;;;;;;;;;;4900613;28;99726;-71
2021/12/02 11:29:46;;;;;;;0.98;0.70;;;;;;;;;;4898017;28;99602;-70
2021/12/02 11:32:31;;;;;;;0.95;0.70;;;;;;;;;;4897849;28;99929;-70
2021/12/02 11:35:07;;;;;;;0.68;0.68;;;;;;;;;;4881441;28;97660;-70
2021/12/02 11:37:35;;;;;;;1.23;0.80;;;;;;;;;;4896879;28;98459;-70
2021/12/02 11:40:03;;;;;;;1.45;1.10;;;;;;;;;;4897772;28;99703;-70
2021/12/02 11:42:30;;;;;;;1.23;0.90;;;;;;;;;;4897634;28;98978;-70
2021/12/02 11:44:57;;;;;;;1.23;1.17;;;;;;;;;;4897549;28;101054;-70
2021/12/02 11:47:24;;;;;;;2.42;1.13;;;;;;;;;;4897298;28;99635;-71
2021/12/02 11:49:50;;;;;;;1.52;1.10;;;;;;;;;;4900459;28;98379;-71
2021/12/02 11:52:16;;;;;;;2.35;1.13;;;;;;;;;;4895484;28;100105;-71
2021/12/02 11:54:43;;;;;;;0.88;0.82;;;;;;;;;;4897542;28;99074;-72
2021/12/02 11:57:09;;;;;;;1.58;0.98;;;;;;;;;;4897659;28;99402;-72
2021/12/02 11:59:36;;;;;;;1.05;0.80;;;;;;;;;;4897748;28;98866;-72
2021/12/02 12:02:02;;;;;;;1.55;1.00;;;;;;;;;;4897259;28;98557;-72
2021/12/02 12:04:29;;;;;;;1.00;1.00;;;;;;;;;;4897515;28;99041;-70
2021/12/02 12:07:08;;;;;;;1.55;1.10;;;;;;;;;;4896174;28;100479;-72
2021/12/02 12:09:34;;;;;;;3.42;1.50;;;;;;;;;;4900894;28;98357;-71
2021/12/02 12:12:01;;;;;;;1.83;1.52;;;;;;;;;;4896903;28;99770;-71
2021/12/02 12:14:37;;;;;;;4.72;1.88;;;;;;;;;;4897084;28;98381;-71
2021/12/02 12:17:06;;;;;;;2.17;2.05;;;;;;;;;;4897456;28;99658;-71
2021/12/02 12:19:37;;;;;;;2.20;1.77;;;;;;;;;;4896726;28;99823;-72
2021/12/02 12:22:08;;;;;;;2.35;1.80;;;;;;;;;;4897139;28;98335;-72
2021/12/02 12:24:47;;;;;;;1.98;1.88;;;;;;;;;;4897750;28;99231;-71
2021/12/02 12:27:13;;;;;;;2.42;2.08;;;;;;;;;;4896701;28;99615;-71
2021/12/02 12:29:40;;;;;;;2.10;1.80;;;;;;;;;;4897134;28;98388;-72
2021/12/02 12:32:32;;;;;;;2.58;1.88;;;;;;;;;;4899491;28;99393;-71
2021/12/02 12:35:01;;;;;;;1.88;1.77;;;;;;;;;;4896677;28;98441;-72
2021/12/02 12:37:33;;;;;;;3.63;2.05;;;;;;;;;;4896984;28;99680;-71
2021/12/02 12:40:09;;;;;;;2.28;1.70;;;;;;;;;;4879448;28;100559;-71
2021/12/02 12:42:36;;;;;;;1.67;1.58;;;;;;;;;;4896616;28;98506;-72
2021/12/02 12:45:04;;;;;;;1.40;1.35;;;;;;;;;;4897177;28;99466;-71
2021/12/02 12:47:39;;;;;;;5.00;2.05;;;;;;;;;;4896828;28;98784;-71
2021/12/02 12:50:21;;;;;;;3.75;1.80;;;;;;;;;;4897563;28;97723;-71
2021/12/02 12:52:47;;;;;;;;;;;;;;;;;;4897023;28;98732;-71
2021/12/02 12:55:15;;;;;;;3.83;2.30;;;;;;;;;;4898917;28;128381;-71
2021/12/02 12:58:06;;;;;;;2.28;2.08;;;;;;;;;;4896368;28;99580;-71
2021/12/02 13:00:36;;;;;;;4.20;2.42;;;;;;;;;;4896373;28;99691;-71
2021/12/02 13:03:11;;;;;;;2.70;2.37;;;;;;;;;;4896336;28;98496;-71
2021/12/02 13:05:40;;;;;;;3.97;2.85;;;;;;;;;;4896687;28;99006;-71
2021/12/02 13:08:19;;;;;;;6.28;2.58;;;;;;;;;;4896252;28;99704;-71
2021/12/02 13:10:54;;;;;;;2.55;2.35;;;;;;;;;;4896434;28;98779;-71
2021/12/02 13:13:26;;;;;;;6.07;2.80;;;;;;;;;;4896426;28;99304;-71
2021/12/02 13:15:53;;;;;;;4.28;2.72;;;;;;;;;;4896294;28;99583;-71
2021/12/02 13:18:29;;;;;;;3.50;2.80;;;;;;;;;;4899752;28;98337;-71
2021/12/02 13:20:55;;;;;;;5.80;2.80;;;;;;;;;;4896129;28;99301;-71
2021/12/02 13:23:26;;;;;;;5.03;2.80;;;;;;;;;;4896060;28;98998;-71
2021/12/02 13:25:55;;;;;;;3.03;2.45;;;;;;;;;;4896385;28;100242;-72
2021/12/02 13:28:22;;;;;;;3.20;2.17;;;;;;;;;;4895611;28;100154;-71
2021/12/02 13:30:52;;;;;;;4.78;2.10;;;;;;;;;;4896418;28;98261;-71
2021/12/02 13:33:19;;;;;;;6.47;2.03;;;;;;;;;;4896286;28;99413;-72
2021/12/02 13:35:46;;;;;;;2.30;2.10;;;;;;;;;;4895827;28;99498;-71
2021/12/02 13:38:15;;;;;;;3.80;1.98;;;;;;;;;;4896199;28;98370;-71
2021/12/02 13:40:42;;;;;;;3.50;2.17;;;;;;;;;;4898999;28;99236;-71
2021/12/02 13:43:09;;;;;;;3.45;2.08;;;;;;;;;;4896253;28;98376;-71
2021/12/02 13:45:36;;;;;;;5.43;2.15;;;;;;;;;;4896273;28;98928;-72
2021/12/02 13:48:10;;;;;;;6.32;1.85;;;;;;;;;;4895148;28;100460;-71
2021/12/02 13:50:40;;;;;;;4.93;2.30;;;;;;;;;;4895984;28;98367;-71
2021/12/02 13:53:07;;;;;;;3.97;2.15;;;;;;;;;;4895964;28;99364;-71
2021/12/02 13:55:38;;;;;;;6.43;2.42;;;;;;;;;;4895182;28;99761;-72
2021/12/02 13:58:16;;;;;;;4.30;2.03;;;;;;;;;;4895830;28;98387;-70
2021/12/02 14:00:45;;;;;;;4.25;2.58;;;;;;;;;;4897693;28;101322;-71
2021/12/02 14:03:19;;;;;;;4.13;2.40;;;;;;;;;;4895703;28;98418;-71
2021/12/02 14:05:49;;;;;;;5.50;2.60;;;;;;;;;;4895562;28;99440;-71
2021/12/02 14:08:17;;;;;;;4.32;2.60;;;;;;;;;;4895072;28;99829;-71
2021/12/02 14:10:44;;;;;;;4.93;2.90;;;;;;;;;;4895883;28;98352;-71
2021/12/02 14:13:15;;;;;;;5.00;2.92;;;;;;;;;;4885022;28;100302;-71
2021/12/02 14:15:51;;;;;;;5.45;2.80;;;;;;;;;;4894442;28;99516;-71
2021/12/02 14:18:22;;;;;;;4.97;2.95;;;;;;;;;;4895229;28;98514;-71
2021/12/02 14:20:50;;;;;;;5.17;2.77;;;;;;;;;;4894403;28;99641;-71
2021/12/02 14:23:30;;;;;;;6.05;2.83;;;;;;;;;;4898559;28;99226;-71
2021/12/02 14:26:00;;;;;;;7.63;3.00;;;;;;;;;;4895546;28;99432;-71
2021/12/02 14:28:28;;;;;;;6.30;2.55;;;;;;;;;;4895025;28;100509;-71
2021/12/02 14:30:55;;;;;;;6.45;2.83;;;;;;;;;;4895578;28;97997;-71
2021/12/02 14:33:42;;;;;;;2.92;2.58;;;;;;;;;;4894365;28;99931;-70
2021/12/02 14:36:16;;;;;;;6.15;2.17;;;;;;;;;;4910012;28;99860;-70
2021/12/02 14:38:47;;;;;;;10.18;2.80;;;;;;;;;;4895081;28;99203;-70
2021/12/02 14:41:15;;;;;;;5.38;2.03;;;;;;;;;;4895064;28;100089;-72
2021/12/02 14:43:47;;;;;;;9.35;2.22;;;;;;;;;;4894984;28;99755;-71
2021/12/02 14:46:25;;;;;;;6.40;2.60;;;;;;;;;;4898711;28;98304;-71
2021/12/02 14:49:04;;;;;;;7.50;2.33;;;;;;;;;;4895058;28;99085;-70
2021/12/02 14:51:42;;;;;;;4.82;2.30;;;;;;;;;;4894281;28;98452;-71
2021/12/02 14:54:08;;;;;;;5.22;2.13;;;;;;;;;;4893006;28;99260;-70
2021/12/02 14:56:40;;;;;;;4.50;2.00;;;;;;;;;;4876119;28;98942;-70
2021/12/02 14:59:07;;;;;;;3.72;2.00;;;;;;;;;;4883732;28;98568;-71
2021/12/02 15:01:34;;;;;;;4.70;1.90;;;;;;;;;;4895222;28;99399;-71
2021/12/02 15:04:14;;;;;;;6.53;2.10;;;;;;;;;;4894009;28;99117;-71
2021/12/02 15:06:42;;;;;;;6.35;1.70;;;;;;;;;;4894972;28;98540;-71
2021/12/02 15:09:27;;;;;;;7.22;2.15;;;;;;;;;;4897880;28;99652;-70